createdAt,value
2023-04-06T00:01:52.816Z,6.60
2023-04-06T00:04:20.710Z,6.53
2023-04-06T00:06:48.071Z,5.93
2023-04-06T00:09:15.656Z,5.82
2023-04-06T00:11:43.296Z,5.55
2023-04-06T00:14:10.802Z,6.07
2023-04-06T00:16:38.280Z,5.78
2023-04-06T00:19:05.982Z,5.80
2023-04-06T00:21:33.739Z,5.15
2023-04-06T00:24:01.182Z,7.32
2023-04-06T00:26:28.861Z,5.85
2023-04-06T00:28:56.740Z,6.47
2023-04-06T00:31:24.580Z,6.28
2023-04-06T00:33:52.410Z,6.32
2023-04-06T00:36:19.892Z,7.37
2023-04-06T00:38:47.330Z,6.25
2023-04-06T00:41:15.051Z,6.05
2023-04-06T00:43:42.525Z,6.45
2023-04-06T00:46:09.966Z,6.30
2023-04-06T00:48:37.795Z,7.20
2023-04-06T00:51:05.579Z,6.72
2023-04-06T00:53:32.983Z,6.90
2023-04-06T00:56:01.046Z,6.43
2023-04-06T00:58:29.432Z,6.62
2023-04-06T01:01:01.820Z,8.18
2023-04-06T01:03:29.811Z,6.85
2023-04-06T01:05:59.356Z,7.47
2023-04-06T01:08:27.895Z,6.47
2023-04-06T01:10:56.020Z,7.03
2023-04-06T01:13:23.556Z,7.18
2023-04-06T01:15:51.800Z,6.70
2023-04-06T01:18:26.657Z,7.25
2023-04-06T01:20:54.749Z,7.37
2023-04-06T01:23:24.886Z,7.45
2023-04-06T01:25:52.266Z,7.05
2023-04-06T01:28:19.801Z,7.85
2023-04-06T01:30:48.345Z,6.97
2023-04-06T01:33:16.146Z,6.87
2023-04-06T01:35:44.504Z,7.53
2023-04-06T01:38:12.340Z,6.45
2023-04-06T01:40:39.887Z,7.35
2023-04-06T01:43:07.651Z,8.23
2023-04-06T01:45:36.087Z,7.68
2023-04-06T01:48:04.777Z,7.80
2023-04-06T01:50:32.431Z,7.87
2023-04-06T01:53:00.402Z,8.02
2023-04-06T01:55:28.059Z,7.22
2023-04-06T01:57:56.375Z,7.22
2023-04-06T02:00:26.657Z,7.43
2023-04-06T02:02:54.473Z,8.25
2023-04-06T02:05:22.296Z,7.68
2023-04-06T02:07:50.938Z,9.20
2023-04-06T02:10:19.593Z,8.32
2023-04-06T02:12:47.013Z,8.88
2023-04-06T02:15:15.504Z,8.80
2023-04-06T02:17:43.654Z,8.27
2023-04-06T02:20:11.183Z,9.55
2023-04-06T02:22:38.613Z,9.25
2023-04-06T02:25:06.552Z,8.93
2023-04-06T02:27:34.324Z,9.57
2023-04-06T02:30:01.978Z,8.98
2023-04-06T02:32:29.451Z,8.70
2023-04-06T02:34:58.235Z,8.00
2023-04-06T02:37:26.373Z,8.90
2023-04-06T02:39:56.452Z,9.90
2023-04-06T02:42:24.199Z,10.18
2023-04-06T02:44:52.454Z,10.25
2023-04-06T02:47:21.578Z,8.90
2023-04-06T02:49:49.762Z,9.32
2023-04-06T02:52:18.902Z,8.50
2023-04-06T02:54:46.675Z,9.80
2023-04-06T02:57:14.370Z,9.18
2023-04-06T02:59:42.272Z,9.15
2023-04-06T03:02:09.852Z,8.55
2023-04-06T03:04:37.554Z,8.07
2023-04-06T03:07:05.812Z,9.00
2023-04-06T03:09:33.627Z,8.90
2023-04-06T03:12:01.449Z,9.55
2023-04-06T03:14:30.763Z,9.30
2023-04-06T03:16:58.196Z,9.70
2023-04-06T03:19:25.852Z,9.40
2023-04-06T03:21:54.724Z,8.93
2023-04-06T03:24:22.558Z,7.62
2023-04-06T03:26:49.984Z,7.90
2023-04-06T03:29:17.816Z,9.45
2023-04-06T03:31:45.455Z,9.90
2023-04-06T03:34:13.849Z,8.85
2023-04-06T03:36:41.561Z,9.20
2023-04-06T03:39:09.104Z,9.50
2023-04-06T03:41:37.064Z,9.27
2023-04-06T03:44:06.605Z,9.05
2023-04-06T03:46:34.035Z,8.20
2023-04-06T03:49:01.751Z,8.98
2023-04-06T03:51:30.482Z,9.82
2023-04-06T03:53:57.913Z,9.05
2023-04-06T03:56:25.309Z,9.18
2023-04-06T03:58:55.353Z,9.70
2023-04-06T04:01:22.771Z,10.70
2023-04-06T04:03:51.934Z,9.15
2023-04-06T04:06:21.005Z,9.25
2023-04-06T04:08:48.408Z,9.55
2023-04-06T04:11:16.981Z,9.68
2023-04-06T04:13:47.307Z,9.90
2023-04-06T04:16:14.992Z,9.35
2023-04-06T04:18:44.605Z,9.40
2023-04-06T04:21:12.151Z,9.13
2023-04-06T04:23:39.573Z,10.02
2023-04-06T04:26:07.240Z,9.85
2023-04-06T04:28:35.825Z,8.98
2023-04-06T04:31:03.223Z,9.23
2023-04-06T04:33:31.478Z,10.43
2023-04-06T04:35:59.378Z,10.32
2023-04-06T04:38:27.521Z,9.98
2023-04-06T04:40:55.974Z,10.00
2023-04-06T04:43:23.489Z,9.88
2023-04-06T04:45:51.181Z,10.13
2023-04-06T04:48:19.800Z,11.85
2023-04-06T04:50:47.842Z,10.85
2023-04-06T04:53:15.490Z,9.88
2023-04-06T04:55:46.052Z,10.50
2023-04-06T04:58:17.762Z,10.55
2023-04-06T05:00:46.746Z,10.27
2023-04-06T05:03:26.113Z,10.27
2023-04-06T05:05:55.801Z,10.40
2023-04-06T05:08:24.787Z,10.52
2023-04-06T05:10:52.328Z,11.38
2023-04-06T05:13:20.557Z,10.65
2023-04-06T05:15:48.836Z,12.75
2023-04-06T05:18:18.865Z,12.15
2023-04-06T05:20:46.747Z,10.75
2023-04-06T05:23:14.371Z,12.77
2023-04-06T05:25:42.277Z,12.48
2023-04-06T05:28:15.109Z,11.88
2023-04-06T05:30:43.887Z,12.02
2023-04-06T05:33:12.826Z,12.37
2023-04-06T05:35:42.559Z,11.50
2023-04-06T05:38:13.569Z,11.68
2023-04-06T05:40:42.509Z,10.88
2023-04-06T05:43:10.894Z,12.00
2023-04-06T05:45:39.514Z,11.25
2023-04-06T05:48:07.415Z,11.57
2023-04-06T05:50:34.854Z,11.18
2023-04-06T05:53:04.762Z,11.95
2023-04-06T05:55:32.960Z,11.18
2023-04-06T05:58:01.901Z,11.80
2023-04-06T06:00:29.772Z,13.07
2023-04-06T06:02:58.172Z,13.23
2023-04-06T06:05:26.608Z,12.52
2023-04-06T06:07:55.447Z,18.20
2023-04-06T06:10:23.202Z,15.55
2023-04-06T06:12:51.127Z,12.77
2023-04-06T06:15:18.654Z,12.18
2023-04-06T06:17:46.579Z,11.57
2023-04-06T06:20:14.414Z,11.48
2023-04-06T06:22:44.604Z,10.93
2023-04-06T06:25:12.859Z,12.20
2023-04-06T06:27:40.252Z,11.50
2023-04-06T06:30:10.219Z,11.75
2023-04-06T06:32:39.141Z,12.82
2023-04-06T06:35:06.991Z,11.68
2023-04-06T06:37:34.416Z,11.60
2023-04-06T06:40:02.568Z,11.73
2023-04-06T06:42:31.582Z,15.75
2023-04-06T06:45:01.080Z,14.07
2023-04-06T06:47:28.814Z,12.82
2023-04-06T06:49:56.428Z,13.27
2023-04-06T06:52:25.128Z,31.27
2023-04-06T06:54:57.780Z,14.52
2023-04-06T06:57:25.326Z,14.32
2023-04-06T06:59:53.267Z,13.52
2023-04-06T07:02:20.927Z,13.80
2023-04-06T07:04:51.486Z,15.10
2023-04-06T07:07:19.306Z,13.60
2023-04-06T07:09:47.845Z,13.62
2023-04-06T07:12:16.503Z,13.62
2023-04-06T07:14:44.289Z,13.27
2023-04-06T07:17:13.591Z,12.77
2023-04-06T07:19:41.685Z,14.73
2023-04-06T07:22:09.638Z,12.50
2023-04-06T07:24:37.112Z,11.82
2023-04-06T07:27:05.118Z,11.95
2023-04-06T07:29:32.984Z,12.65
2023-04-06T07:32:00.547Z,11.20
2023-04-06T07:34:28.529Z,11.93
2023-04-06T07:36:57.691Z,11.98
2023-04-06T07:39:27.351Z,11.77
2023-04-06T07:41:55.057Z,11.85
2023-04-06T07:44:22.999Z,12.27
2023-04-06T07:46:50.636Z,12.77
2023-04-06T07:49:19.888Z,11.48
2023-04-06T07:51:47.654Z,10.57
2023-04-06T07:54:15.104Z,12.27
2023-04-06T07:56:42.512Z,11.75
2023-04-06T07:59:12.316Z,11.45
2023-04-06T08:01:39.738Z,11.20
2023-04-06T08:04:07.773Z,11.45
2023-04-06T08:06:37.305Z,12.15
2023-04-06T08:09:04.759Z,11.75
2023-04-06T08:11:32.430Z,11.82
2023-04-06T08:13:59.901Z,11.12
2023-04-06T08:16:27.390Z,11.80
2023-04-06T08:18:55.064Z,11.18
2023-04-06T08:21:22.761Z,12.40
2023-04-06T08:23:50.249Z,10.70
2023-04-06T08:26:17.916Z,11.80
2023-04-06T08:28:47.039Z,11.30
2023-04-06T08:31:14.617Z,11.93
2023-04-06T08:33:43.571Z,11.55
2023-04-06T08:36:15.506Z,12.15
2023-04-06T08:38:43.976Z,11.75
2023-04-06T08:41:13.329Z,12.23
2023-04-06T08:43:45.089Z,11.23
2023-04-06T08:46:14.304Z,10.02
2023-04-06T08:48:43.140Z,11.55
2023-04-06T08:51:11.087Z,11.27
2023-04-06T08:53:39.533Z,10.73
2023-04-06T08:56:06.963Z,11.30
2023-04-06T08:58:38.584Z,12.00
2023-04-06T09:01:12.615Z,11.35
2023-04-06T09:03:41.552Z,11.60
2023-04-06T09:06:10.840Z,10.30
2023-04-06T09:08:40.352Z,10.68
2023-04-06T09:11:09.102Z,10.15
2023-04-06T09:13:48.539Z,9.98
2023-04-06T09:16:16.661Z,10.15
2023-04-06T09:18:44.363Z,10.05
2023-04-06T09:21:12.032Z,9.13
2023-04-06T09:23:40.814Z,7.93
2023-04-06T09:26:16.393Z,7.78
2023-04-06T09:28:44.426Z,8.05
2023-04-06T09:31:16.588Z,7.47
2023-04-06T09:33:46.150Z,7.32
2023-04-06T09:36:16.424Z,8.15
2023-04-06T09:38:57.655Z,7.72
2023-04-06T09:41:28.987Z,7.78
2023-04-06T09:44:03.680Z,7.30
2023-04-06T09:46:50.467Z,9.18
2023-04-06T09:49:23.967Z,8.23
2023-04-06T09:51:58.337Z,7.93
2023-04-06T09:54:30.523Z,7.87
2023-04-06T09:57:01.565Z,6.95
2023-04-06T09:59:41.817Z,8.88
2023-04-06T10:02:16.960Z,8.18
2023-04-06T10:04:47.750Z,9.17
2023-04-06T10:07:16.634Z,8.45
2023-04-06T10:09:46.530Z,8.98
2023-04-06T10:12:14.313Z,9.23
2023-04-06T10:14:42.241Z,7.70
2023-04-06T10:17:09.694Z,7.15
2023-04-06T10:19:47.654Z,8.90
2023-04-06T10:22:21.990Z,7.75
2023-04-06T10:24:49.721Z,7.72
2023-04-06T10:27:17.095Z,7.50
2023-04-06T10:29:49.901Z,8.23
2023-04-06T10:32:18.691Z,8.68
2023-04-06T10:34:46.056Z,6.68
2023-04-06T10:37:17.457Z,6.82
2023-04-06T10:39:59.391Z,8.45
2023-04-06T10:42:38.246Z,7.35
2023-04-06T10:45:20.622Z,7.70
2023-04-06T10:47:48.127Z,6.97
2023-04-06T10:50:17.764Z,7.40
2023-04-06T10:52:46.733Z,7.68
2023-04-06T10:55:15.912Z,7.15
2023-04-06T10:57:43.599Z,7.70
2023-04-06T11:00:13.132Z,7.05
2023-04-06T11:02:40.845Z,7.03
2023-04-06T11:05:08.889Z,7.25
2023-04-06T11:07:36.270Z,7.40
2023-04-06T11:10:15.566Z,7.07
2023-04-06T11:12:46.179Z,8.38
2023-04-06T11:15:13.611Z,8.80
2023-04-06T11:17:41.009Z,8.38
2023-04-06T11:20:11.934Z,8.35
2023-04-06T11:22:51.202Z,8.65
2023-04-06T11:25:19.546Z,7.65
2023-04-06T11:27:48.057Z,8.43
2023-04-06T11:30:16.023Z,9.68
2023-04-06T11:32:45.749Z,8.10
2023-04-06T11:35:20.705Z,8.50
2023-04-06T11:37:52.610Z,8.02
2023-04-06T11:40:25.202Z,8.43
2023-04-06T11:42:57.093Z,7.50
2023-04-06T11:45:25.379Z,7.45
2023-04-06T11:48:01.485Z,6.95
2023-04-06T11:53:01.924Z,7.12
2023-04-06T11:55:30.561Z,6.87
2023-04-06T11:58:00.348Z,6.57
2023-04-06T12:00:29.303Z,7.12
2023-04-06T12:02:57.146Z,6.62
2023-04-06T12:05:25.978Z,7.28
2023-04-06T12:07:53.485Z,6.80
2023-04-06T12:10:21.313Z,7.12
2023-04-06T12:12:48.679Z,6.35
2023-04-06T12:15:16.139Z,6.43
2023-04-06T12:17:44.864Z,7.22
2023-04-06T12:20:22.619Z,7.70
2023-04-06T12:22:53.376Z,8.40
2023-04-06T12:25:21.074Z,6.93
2023-04-06T12:27:48.495Z,8.30
2023-04-06T12:30:16.455Z,7.05
2023-04-06T12:32:43.873Z,7.60
2023-04-06T12:35:12.723Z,7.80
2023-04-06T12:37:41.185Z,7.20
2023-04-06T12:40:11.494Z,7.20
2023-04-06T12:42:41.381Z,8.10
2023-04-06T12:45:09.965Z,6.85
2023-04-06T12:47:37.405Z,7.25
2023-04-06T12:50:06.938Z,7.68
2023-04-06T12:52:36.267Z,7.12
2023-04-06T12:55:04.408Z,7.72
2023-04-06T12:57:32.080Z,7.00
2023-04-06T12:59:59.832Z,8.10
2023-04-06T13:02:28.122Z,8.55
2023-04-06T13:04:56.798Z,7.12
2023-04-06T13:07:24.506Z,7.07
2023-04-06T13:09:52.794Z,7.20
2023-04-06T13:12:20.357Z,7.53
2023-04-06T13:14:51.943Z,6.47
2023-04-06T13:17:19.321Z,7.15
2023-04-06T13:19:46.704Z,7.85
2023-04-06T13:22:14.352Z,7.10
2023-04-06T13:24:41.765Z,7.20
2023-04-06T13:27:09.165Z,7.20
2023-04-06T13:29:36.910Z,7.18
2023-04-06T13:32:04.525Z,6.78
2023-04-06T13:34:32.678Z,7.60
2023-04-06T13:37:00.475Z,6.18
2023-04-06T13:39:27.913Z,6.60
2023-04-06T13:41:57.111Z,6.50
2023-04-06T13:44:26.155Z,6.18
2023-04-06T13:46:54.671Z,7.72
2023-04-06T13:49:22.168Z,6.40
2023-04-06T13:51:49.815Z,6.72
2023-04-06T13:54:17.206Z,7.65
2023-04-06T13:56:44.617Z,7.47
2023-04-06T13:59:12.306Z,6.65
2023-04-06T14:01:39.811Z,6.65
2023-04-06T14:04:07.775Z,6.75
2023-04-06T14:06:35.312Z,6.37
2023-04-06T14:09:02.729Z,7.65
2023-04-06T14:11:30.766Z,6.55
2023-04-06T14:13:58.744Z,7.37
2023-04-06T14:16:26.455Z,8.88
2023-04-06T14:18:56.057Z,9.60
2023-04-06T14:21:23.454Z,9.32
2023-04-06T14:23:50.832Z,7.85
2023-04-06T14:26:18.560Z,8.65
2023-04-06T14:28:47.448Z,25.37
2023-04-06T14:31:17.035Z,9.25
2023-04-06T14:33:45.897Z,13.07
2023-04-06T14:36:14.043Z,7.43
2023-04-06T14:38:41.500Z,7.18
2023-04-06T14:41:10.072Z,7.03
2023-04-06T14:43:37.476Z,6.87
2023-04-06T14:46:04.947Z,8.07
2023-04-06T14:48:32.820Z,8.25
2023-04-06T14:51:00.219Z,6.85
2023-04-06T14:53:27.820Z,7.32
2023-04-06T14:55:55.937Z,6.60
2023-04-06T14:58:24.660Z,7.68
2023-04-06T15:00:57.678Z,7.10
2023-04-06T15:03:26.619Z,6.53
2023-04-06T15:05:54.807Z,6.82
2023-04-06T15:08:25.467Z,6.82
2023-04-06T15:10:53.183Z,6.72
2023-04-06T15:13:21.014Z,7.32
2023-04-06T15:15:52.046Z,7.72
2023-04-06T15:18:19.767Z,7.12
2023-04-06T15:20:47.136Z,7.85
2023-04-06T15:23:14.537Z,7.40
2023-04-06T15:25:42.383Z,7.00
2023-04-06T15:28:10.944Z,7.53
2023-04-06T15:30:38.910Z,8.27
2023-04-06T15:33:11.252Z,8.50
2023-04-06T15:35:41.046Z,8.38
2023-04-06T15:38:09.995Z,8.18
2023-04-06T15:40:48.190Z,7.85
2023-04-06T15:43:17.274Z,6.90
2023-04-06T15:45:44.877Z,8.30
2023-04-06T15:48:12.307Z,8.60
2023-04-06T15:50:39.993Z,7.85
2023-04-06T15:53:07.486Z,10.40
2023-04-06T15:55:34.945Z,8.98
2023-04-06T15:58:02.755Z,9.10
2023-04-06T16:00:30.122Z,7.85
2023-04-06T16:02:57.907Z,7.85
2023-04-06T16:05:27.179Z,7.55
2023-04-06T16:07:55.664Z,7.80
2023-04-06T16:10:23.321Z,10.02
2023-04-06T16:12:50.720Z,8.57
2023-04-06T16:15:18.112Z,7.35
2023-04-06T16:17:45.853Z,8.75
2023-04-06T16:20:15.758Z,7.82
2023-04-06T16:22:43.163Z,8.50
2023-04-06T16:25:11.887Z,8.30
2023-04-06T16:27:39.307Z,8.70
2023-04-06T16:30:07.828Z,8.63
2023-04-06T16:32:35.639Z,9.55
2023-04-06T16:35:04.654Z,9.05
2023-04-06T16:37:32.142Z,9.57
2023-04-06T16:40:01.930Z,9.45
2023-04-06T16:42:29.307Z,11.38
2023-04-06T16:44:56.701Z,9.88
2023-04-06T16:47:24.372Z,10.45
2023-04-06T16:49:52.531Z,9.50
2023-04-06T16:52:19.912Z,10.65
2023-04-06T16:54:47.836Z,9.95
2023-04-06T16:57:16.653Z,10.18
2023-04-06T16:59:44.033Z,11.75
2023-04-06T17:02:11.946Z,10.82
2023-04-06T17:04:39.466Z,12.25
2023-04-06T17:07:06.885Z,12.63
2023-04-06T17:09:34.627Z,12.48
2023-04-06T17:12:02.129Z,12.32
2023-04-06T17:14:29.525Z,12.80
2023-04-06T17:16:57.286Z,13.43
2023-04-06T17:19:25.379Z,12.15
2023-04-06T17:21:53.495Z,14.38
2023-04-06T17:24:21.357Z,13.68
2023-04-06T17:26:48.744Z,14.40
2023-04-06T17:29:16.230Z,16.12
2023-04-06T17:31:45.585Z,16.52
2023-04-06T17:34:12.989Z,15.43
2023-04-06T17:36:40.388Z,16.20
2023-04-06T17:39:08.521Z,18.65
2023-04-06T17:41:36.217Z,17.00
2023-04-06T17:44:03.610Z,18.48
2023-04-06T17:46:31.399Z,18.92
2023-04-06T17:48:58.849Z,18.15
2023-04-06T17:51:27.698Z,18.15
2023-04-06T17:53:55.399Z,18.70
2023-04-06T17:56:23.346Z,19.42
2023-04-06T18:01:23.395Z,19.58
2023-04-06T18:03:51.324Z,20.80
2023-04-06T18:06:19.117Z,18.58
2023-04-06T18:08:46.532Z,18.87
2023-04-06T18:11:18.602Z,19.62
2023-04-06T18:13:46.039Z,18.10
2023-04-06T18:16:14.143Z,20.05
2023-04-06T18:18:41.737Z,19.90
2023-04-06T18:21:09.174Z,18.70
2023-04-06T18:23:37.762Z,19.98
2023-04-06T18:26:06.304Z,21.10
2023-04-06T18:28:34.243Z,20.83
2023-04-06T18:31:02.350Z,19.25
2023-04-06T18:33:30.170Z,20.95
2023-04-06T18:35:57.740Z,20.95
2023-04-06T18:38:26.457Z,20.02
2023-04-06T18:40:53.941Z,21.65
2023-04-06T18:43:21.448Z,22.05
2023-04-06T18:45:49.157Z,21.45
2023-04-06T18:48:17.026Z,22.50
2023-04-06T18:50:54.561Z,22.35
2023-04-06T18:53:25.393Z,23.52
2023-04-06T18:55:52.782Z,22.37
2023-04-06T18:58:20.340Z,23.10
2023-04-06T19:00:47.944Z,23.70
2023-04-06T19:03:15.784Z,25.48
2023-04-06T19:05:45.152Z,25.45
2023-04-06T19:08:12.873Z,25.73
2023-04-06T19:10:41.132Z,25.88
2023-04-06T19:13:09.486Z,23.80
2023-04-06T19:15:41.114Z,25.30
2023-04-06T19:18:08.777Z,24.85
2023-04-06T19:20:36.239Z,26.27
2023-04-06T19:23:04.730Z,25.17
2023-04-06T19:25:32.094Z,25.62
2023-04-06T19:27:59.524Z,26.15
2023-04-06T19:30:27.325Z,25.10
2023-04-06T19:32:54.908Z,25.98
2023-04-06T19:35:22.326Z,27.25
2023-04-06T19:37:50.306Z,26.83
2023-04-06T19:40:17.679Z,27.20
2023-04-06T19:42:45.740Z,26.80
2023-04-06T19:45:13.523Z,28.27
2023-04-06T19:47:40.941Z,26.90
2023-04-06T19:50:10.343Z,28.10
2023-04-06T19:52:39.353Z,28.55
2023-04-06T19:55:07.324Z,28.42
2023-04-06T19:57:34.688Z,27.70
2023-04-06T20:00:04.919Z,27.25
2023-04-06T20:02:37.068Z,26.62
2023-04-06T20:05:05.024Z,29.73
2023-04-06T20:07:32.459Z,27.60
2023-04-06T20:10:02.177Z,27.40
2023-04-06T20:12:29.830Z,28.02
2023-04-06T20:14:57.183Z,26.92
2023-04-06T20:17:24.861Z,26.35
2023-04-06T20:19:53.892Z,25.55
2023-04-06T20:22:21.318Z,26.10
2023-04-06T20:24:48.775Z,26.20
2023-04-06T20:27:17.111Z,26.20
2023-04-06T20:29:44.748Z,23.30
2023-04-06T20:32:13.076Z,25.25
2023-04-06T20:34:40.792Z,26.60
2023-04-06T20:37:08.881Z,26.10
2023-04-06T20:39:36.899Z,27.23
2023-04-06T20:42:05.437Z,27.08
2023-04-06T20:44:32.809Z,27.35
2023-04-06T20:47:00.249Z,25.83
2023-04-06T20:49:28.045Z,28.48
2023-04-06T20:51:55.389Z,27.52
2023-04-06T20:54:22.800Z,26.60
2023-04-06T20:56:50.556Z,30.12
2023-04-06T20:59:17.948Z,28.20
2023-04-06T21:01:45.535Z,29.15
2023-04-06T21:04:13.575Z,29.77
2023-04-06T21:06:41.771Z,29.45
2023-04-06T21:09:09.132Z,30.75
2023-04-06T21:11:36.779Z,29.37
2023-04-06T21:14:04.202Z,28.77
2023-04-06T21:16:31.657Z,29.15
2023-04-06T21:19:00.961Z,28.85
2023-04-06T21:21:28.363Z,28.35
2023-04-06T21:23:58.523Z,30.20
2023-04-06T21:26:26.242Z,28.73
2023-04-06T21:28:53.664Z,29.25
2023-04-06T21:31:22.228Z,27.73
2023-04-06T21:33:50.069Z,27.67
2023-04-06T21:36:17.600Z,29.60
2023-04-06T21:38:45.053Z,29.98
2023-04-06T21:41:12.803Z,31.52
2023-04-06T21:43:40.286Z,29.77
2023-04-06T21:46:07.936Z,30.52
2023-04-06T21:48:35.678Z,29.17
2023-04-06T21:51:03.144Z,28.15
2023-04-06T21:53:30.603Z,28.60
2023-04-06T21:55:58.948Z,28.27
2023-04-06T21:58:27.052Z,30.40
2023-04-06T22:00:54.566Z,28.35
2023-04-06T22:03:22.501Z,29.52
2023-04-06T22:05:50.079Z,30.50
2023-04-06T22:08:25.531Z,29.27
2023-04-06T22:10:58.330Z,29.02
2023-04-06T22:13:26.958Z,29.33
2023-04-06T22:15:55.215Z,28.62
2023-04-06T22:18:22.928Z,29.02
2023-04-06T22:20:50.413Z,29.10
2023-04-06T22:23:17.845Z,26.77
2023-04-06T22:25:45.646Z,28.95
2023-04-06T22:28:13.248Z,27.77
2023-04-06T22:30:40.643Z,27.50
2023-04-06T22:33:08.382Z,29.05
2023-04-06T22:35:36.185Z,27.62
2023-04-06T22:38:03.593Z,28.02
2023-04-06T22:40:31.375Z,28.83
2023-04-06T22:42:58.730Z,26.30
2023-04-06T22:45:26.428Z,26.17
2023-04-06T22:47:54.187Z,26.00
2023-04-06T22:50:22.510Z,26.48
2023-04-06T22:52:50.074Z,27.05
2023-04-06T22:55:17.868Z,25.85
2023-04-06T22:57:46.349Z,27.83
2023-04-06T23:00:14.042Z,25.25
2023-04-06T23:02:41.873Z,25.12
2023-04-06T23:05:09.525Z,26.70
2023-04-06T23:07:36.978Z,26.10
2023-04-06T23:10:05.014Z,24.77
2023-04-06T23:12:32.333Z,24.70
2023-04-06T23:14:59.761Z,25.90
2023-04-06T23:17:27.520Z,26.20
2023-04-06T23:20:13.658Z,26.67
2023-04-06T23:25:08.951Z,24.87
2023-04-06T23:27:36.373Z,24.37
2023-04-06T23:30:04.590Z,26.20
2023-04-06T23:32:32.098Z,25.52
2023-04-06T23:34:59.632Z,25.92
2023-04-06T23:37:27.398Z,26.65
2023-04-06T23:39:54.817Z,26.55
2023-04-06T23:42:22.231Z,25.85
2023-04-06T23:44:56.865Z,25.90
2023-04-06T23:47:24.308Z,26.67
2023-04-06T23:49:51.770Z,25.67
2023-04-06T23:52:19.462Z,25.95
2023-04-06T23:54:46.866Z,25.12
2023-04-06T23:57:14.258Z,26.35
2023-04-06T23:59:41.887Z,26.05
